sensor_id;sensor_type;location;lat;lon;timestamp;P1;P2;P0
74880;PMS5003;63427;49.654;6.596;2023-08-30T00:02:14;11;11;
74880;PMS5003;63427;49.654;6.596;2023-08-30T00:04:41;10;10;
74880;PMS5003;63427;49.654;6.596;2023-08-30T00:07:04;12;12;
74880;PMS5003;63427;49.654;6.596;2023-08-30T00:09:30;12;12;
74880;PMS5003;63427;49.654;6.596;2023-08-30T00:11:55;16;14;
74880;PMS5003;63427;49.654;6.596;2023-08-30T00:14:21;15;14;
74880;PMS5003;63427;49.654;6.596;2023-08-30T00:16:46;11;11;
74880;PMS5003;63427;49.654;6.596;2023-08-30T00:19:11;12;12;
74880;PMS5003;63427;49.654;6.596;2023-08-30T00:21:36;14;14;
74880;PMS5003;63427;49.654;6.596;2023-08-30T00:24:02;18;17;
74880;PMS5003;63427;49.654;6.596;2023-08-30T00:26:27;16;15;
74880;PMS5003;63427;49.654;6.596;2023-08-30T00:28:53;17;17;
74880;PMS5003;63427;49.654;6.596;2023-08-30T00:31:18;20;19;
74880;PMS5003;63427;49.654;6.596;2023-08-30T00:33:43;12;12;
74880;PMS5003;63427;49.654;6.596;2023-08-30T00:36:09;17;17;
74880;PMS5003;63427;49.654;6.596;2023-08-30T00:38:34;18;17;
74880;PMS5003;63427;49.654;6.596;2023-08-30T00:41:00;15;15;
74880;PMS5003;63427;49.654;6.596;2023-08-30T00:43:25;17;16;
74880;PMS5003;63427;49.654;6.596;2023-08-30T00:45:50;15;15;
74880;PMS5003;63427;49.654;6.596;2023-08-30T00:48:15;15;15;
74880;PMS5003;63427;49.654;6.596;2023-08-30T00:50:41;18;18;
74880;PMS5003;63427;49.654;6.596;2023-08-30T00:53:06;15;15;
74880;PMS5003;63427;49.654;6.596;2023-08-30T00:55:31;21;20;
74880;PMS5003;63427;49.654;6.596;2023-08-30T00:57:57;22;21;
74880;PMS5003;63427;49.654;6.596;2023-08-30T01:00:22;17;17;
74880;PMS5003;63427;49.654;6.596;2023-08-30T01:02:48;16;16;
74880;PMS5003;63427;49.654;6.596;2023-08-30T01:05:13;14;14;
74880;PMS5003;63427;49.654;6.596;2023-08-30T01:07:38;17;16;
74880;PMS5003;63427;49.654;6.596;2023-08-30T01:10:04;14;14;
74880;PMS5003;63427;49.654;6.596;2023-08-30T01:12:31;16;16;
74880;PMS5003;63427;49.654;6.596;2023-08-30T01:14:57;17;17;
74880;PMS5003;63427;49.654;6.596;2023-08-30T01:17:20;16;16;
74880;PMS5003;63427;49.654;6.596;2023-08-30T01:19:47;21;21;
74880;PMS5003;63427;49.654;6.596;2023-08-30T01:22:14;16;16;
74880;PMS5003;63427;49.654;6.596;2023-08-30T01:24:40;16;15;
74880;PMS5003;63427;49.654;6.596;2023-08-30T01:27:07;13;13;
74880;PMS5003;63427;49.654;6.596;2023-08-30T01:29:28;20;19;
74880;PMS5003;63427;49.654;6.596;2023-08-30T01:31:53;17;17;
74880;PMS5003;63427;49.654;6.596;2023-08-30T01:34:18;17;17;
74880;PMS5003;63427;49.654;6.596;2023-08-30T01:36:44;21;21;
74880;PMS5003;63427;49.654;6.596;2023-08-30T01:39:09;16;16;
74880;PMS5003;63427;49.654;6.596;2023-08-30T01:41:35;15;15;
74880;PMS5003;63427;49.654;6.596;2023-08-30T01:44:00;19;18;
74880;PMS5003;63427;49.654;6.596;2023-08-30T01:46:26;16;16;
74880;PMS5003;63427;49.654;6.596;2023-08-30T01:48:51;16;16;
74880;PMS5003;63427;49.654;6.596;2023-08-30T01:51:16;16;16;
74880;PMS5003;63427;49.654;6.596;2023-08-30T01:53:41;14;14;
74880;PMS5003;63427;49.654;6.596;2023-08-30T01:56:07;17;17;
74880;PMS5003;63427;49.654;6.596;2023-08-30T01:58:32;15;15;
74880;PMS5003;63427;49.654;6.596;2023-08-30T02:00:57;12;12;
74880;PMS5003;63427;49.654;6.596;2023-08-30T02:03:23;13;13;
74880;PMS5003;63427;49.654;6.596;2023-08-30T02:05:50;13;13;
74880;PMS5003;63427;49.654;6.596;2023-08-30T02:08:14;14;14;
74880;PMS5003;63427;49.654;6.596;2023-08-30T02:10:40;15;14;
74880;PMS5003;63427;49.654;6.596;2023-08-30T02:13:04;12;12;
74880;PMS5003;63427;49.654;6.596;2023-08-30T02:15:29;13;13;
74880;PMS5003;63427;49.654;6.596;2023-08-30T02:17:55;13;13;
74880;PMS5003;63427;49.654;6.596;2023-08-30T02:20:20;14;14;
74880;PMS5003;63427;49.654;6.596;2023-08-30T02:22:45;12;12;
74880;PMS5003;63427;49.654;6.596;2023-08-30T02:25:11;12;12;
74880;PMS5003;63427;49.654;6.596;2023-08-30T02:27:36;13;13;
74880;PMS5003;63427;49.654;6.596;2023-08-30T02:30:02;12;12;
74880;PMS5003;63427;49.654;6.596;2023-08-30T02:32:27;11;11;
74880;PMS5003;63427;49.654;6.596;2023-08-30T02:34:52;13;13;
74880;PMS5003;63427;49.654;6.596;2023-08-30T02:37:17;14;13;
74880;PMS5003;63427;49.654;6.596;2023-08-30T02:39:42;13;13;
74880;PMS5003;63427;49.654;6.596;2023-08-30T02:42:08;12;12;
74880;PMS5003;63427;49.654;6.596;2023-08-30T02:44:33;16;16;
74880;PMS5003;63427;49.654;6.596;2023-08-30T02:46:58;15;15;
74880;PMS5003;63427;49.654;6.596;2023-08-30T02:49:24;14;14;
74880;PMS5003;63427;49.654;6.596;2023-08-30T02:51:49;13;13;
74880;PMS5003;63427;49.654;6.596;2023-08-30T02:54:14;14;14;
74880;PMS5003;63427;49.654;6.596;2023-08-30T02:56:40;17;16;
74880;PMS5003;63427;49.654;6.596;2023-08-30T02:59:05;15;14;
74880;PMS5003;63427;49.654;6.596;2023-08-30T03:01:30;12;12;
74880;PMS5003;63427;49.654;6.596;2023-08-30T03:03:55;15;15;
74880;PMS5003;63427;49.654;6.596;2023-08-30T03:06:21;14;14;
74880;PMS5003;63427;49.654;6.596;2023-08-30T03:08:46;12;12;
74880;PMS5003;63427;49.654;6.596;2023-08-30T03:11:12;12;12;
74880;PMS5003;63427;49.654;6.596;2023-08-30T03:13:37;12;12;
74880;PMS5003;63427;49.654;6.596;2023-08-30T03:16:02;13;13;
74880;PMS5003;63427;49.654;6.596;2023-08-30T03:18:27;13;13;
74880;PMS5003;63427;49.654;6.596;2023-08-30T03:23:18;12;12;
74880;PMS5003;63427;49.654;6.596;2023-08-30T03:25:44;13;13;
74880;PMS5003;63427;49.654;6.596;2023-08-30T03:28:09;16;16;
74880;PMS5003;63427;49.654;6.596;2023-08-30T03:30:34;14;14;
74880;PMS5003;63427;49.654;6.596;2023-08-30T03:33:00;12;12;
74880;PMS5003;63427;49.654;6.596;2023-08-30T03:35:25;16;16;
74880;PMS5003;63427;49.654;6.596;2023-08-30T03:37:50;14;14;
74880;PMS5003;63427;49.654;6.596;2023-08-30T03:40:16;13;13;
74880;PMS5003;63427;49.654;6.596;2023-08-30T03:42:41;15;15;
74880;PMS5003;63427;49.654;6.596;2023-08-30T03:45:07;16;15;
74880;PMS5003;63427;49.654;6.596;2023-08-30T03:47:32;15;15;
74880;PMS5003;63427;49.654;6.596;2023-08-30T03:49:57;13;13;
74880;PMS5003;63427;49.654;6.596;2023-08-30T03:52:23;15;15;
74880;PMS5003;63427;49.654;6.596;2023-08-30T03:54:48;13;13;
74880;PMS5003;63427;49.654;6.596;2023-08-30T03:57:13;12;12;
74880;PMS5003;63427;49.654;6.596;2023-08-30T03:59:39;16;16;
74880;PMS5003;63427;49.654;6.596;2023-08-30T04:02:04;11;11;
74880;PMS5003;63427;49.654;6.596;2023-08-30T04:04:30;14;14;
74880;PMS5003;63427;49.654;6.596;2023-08-30T04:06:55;14;14;
74880;PMS5003;63427;49.654;6.596;2023-08-30T04:09:20;13;13;
74880;PMS5003;63427;49.654;6.596;2023-08-30T04:11:46;11;11;
74880;PMS5003;63427;49.654;6.596;2023-08-30T04:14:11;13;13;
74880;PMS5003;63427;49.654;6.596;2023-08-30T04:16:37;12;12;
74880;PMS5003;63427;49.654;6.596;2023-08-30T04:19:02;12;12;
74880;PMS5003;63427;49.654;6.596;2023-08-30T04:21:27;12;12;
74880;PMS5003;63427;49.654;6.596;2023-08-30T04:23:52;10;10;
74880;PMS5003;63427;49.654;6.596;2023-08-30T04:26:18;10;10;
74880;PMS5003;63427;49.654;6.596;2023-08-30T04:28:43;11;11;
74880;PMS5003;63427;49.654;6.596;2023-08-30T04:31:08;10;10;
74880;PMS5003;63427;49.654;6.596;2023-08-30T04:35:59;11;10;
74880;PMS5003;63427;49.654;6.596;2023-08-30T04:38:25;11;11;
74880;PMS5003;63427;49.654;6.596;2023-08-30T04:40:50;11;11;
74880;PMS5003;63427;49.654;6.596;2023-08-30T04:43:15;10;10;
74880;PMS5003;63427;49.654;6.596;2023-08-30T04:45:41;9;9;
74880;PMS5003;63427;49.654;6.596;2023-08-30T04:48:06;12;12;
74880;PMS5003;63427;49.654;6.596;2023-08-30T04:50:32;12;12;
74880;PMS5003;63427;49.654;6.596;2023-08-30T04:52:57;13;12;
74880;PMS5003;63427;49.654;6.596;2023-08-30T04:55:23;13;12;
74880;PMS5003;63427;49.654;6.596;2023-08-30T04:57:48;9;9;
74880;PMS5003;63427;49.654;6.596;2023-08-30T05:00:14;12;12;
74880;PMS5003;63427;49.654;6.596;2023-08-30T05:02:39;10;10;
74880;PMS5003;63427;49.654;6.596;2023-08-30T05:05:05;10;10;
74880;PMS5003;63427;49.654;6.596;2023-08-30T05:07:30;11;11;
74880;PMS5003;63427;49.654;6.596;2023-08-30T05:09:55;12;12;
74880;PMS5003;63427;49.654;6.596;2023-08-30T05:12:20;12;12;
74880;PMS5003;63427;49.654;6.596;2023-08-30T05:14:45;13;13;
74880;PMS5003;63427;49.654;6.596;2023-08-30T05:17:11;13;13;
74880;PMS5003;63427;49.654;6.596;2023-08-30T05:19:36;11;11;
74880;PMS5003;63427;49.654;6.596;2023-08-30T05:22:02;12;12;
74880;PMS5003;63427;49.654;6.596;2023-08-30T05:24:27;11;11;
74880;PMS5003;63427;49.654;6.596;2023-08-30T05:26:52;10;10;
74880;PMS5003;63427;49.654;6.596;2023-08-30T05:29:18;11;11;
74880;PMS5003;63427;49.654;6.596;2023-08-30T05:31:44;13;13;
74880;PMS5003;63427;49.654;6.596;2023-08-30T05:34:09;13;13;
74880;PMS5003;63427;49.654;6.596;2023-08-30T05:36:34;13;13;
74880;PMS5003;63427;49.654;6.596;2023-08-30T05:39:00;11;11;
74880;PMS5003;63427;49.654;6.596;2023-08-30T05:41:25;11;11;
74880;PMS5003;63427;49.654;6.596;2023-08-30T05:43:50;12;12;
74880;PMS5003;63427;49.654;6.596;2023-08-30T05:46:16;13;13;
74880;PMS5003;63427;49.654;6.596;2023-08-30T05:48:41;11;11;
74880;PMS5003;63427;49.654;6.596;2023-08-30T05:51:06;12;11;
74880;PMS5003;63427;49.654;6.596;2023-08-30T05:53:32;12;11;
74880;PMS5003;63427;49.654;6.596;2023-08-30T05:55:57;11;11;
74880;PMS5003;63427;49.654;6.596;2023-08-30T05:58:22;10;10;
74880;PMS5003;63427;49.654;6.596;2023-08-30T06:00:48;12;12;
74880;PMS5003;63427;49.654;6.596;2023-08-30T06:03:13;10;10;
74880;PMS5003;63427;49.654;6.596;2023-08-30T06:05:39;15;14;
74880;PMS5003;63427;49.654;6.596;2023-08-30T06:08:04;13;13;
74880;PMS5003;63427;49.654;6.596;2023-08-30T06:10:29;14;14;
74880;PMS5003;63427;49.654;6.596;2023-08-30T06:12:55;13;13;
74880;PMS5003;63427;49.654;6.596;2023-08-30T06:15:20;17;17;
74880;PMS5003;63427;49.654;6.596;2023-08-30T06:17:46;12;12;
74880;PMS5003;63427;49.654;6.596;2023-08-30T06:20:11;19;18;
74880;PMS5003;63427;49.654;6.596;2023-08-30T06:22:36;14;14;
74880;PMS5003;63427;49.654;6.596;2023-08-30T06:25:02;21;20;
74880;PMS5003;63427;49.654;6.596;2023-08-30T06:27:27;19;18;
74880;PMS5003;63427;49.654;6.596;2023-08-30T06:29:52;19;19;
74880;PMS5003;63427;49.654;6.596;2023-08-30T06:32:18;18;18;
74880;PMS5003;63427;49.654;6.596;2023-08-30T06:34:43;19;19;
74880;PMS5003;63427;49.654;6.596;2023-08-30T06:37:09;20;19;
74880;PMS5003;63427;49.654;6.596;2023-08-30T06:39:34;18;18;
74880;PMS5003;63427;49.654;6.596;2023-08-30T06:42:00;18;18;
74880;PMS5003;63427;49.654;6.596;2023-08-30T06:44:24;16;16;
74880;PMS5003;63427;49.654;6.596;2023-08-30T06:46:50;17;17;
74880;PMS5003;63427;49.654;6.596;2023-08-30T06:49:15;15;15;
74880;PMS5003;63427;49.654;6.596;2023-08-30T06:51:41;14;14;
74880;PMS5003;63427;49.654;6.596;2023-08-30T06:54:06;18;18;
74880;PMS5003;63427;49.654;6.596;2023-08-30T06:56:32;17;17;
74880;PMS5003;63427;49.654;6.596;2023-08-30T06:58:57;16;16;
74880;PMS5003;63427;49.654;6.596;2023-08-30T07:01:22;19;19;
74880;PMS5003;63427;49.654;6.596;2023-08-30T07:03:47;21;21;
74880;PMS5003;63427;49.654;6.596;2023-08-30T07:06:13;22;22;
74880;PMS5003;63427;49.654;6.596;2023-08-30T07:08:39;24;24;
74880;PMS5003;63427;49.654;6.596;2023-08-30T07:11:04;19;19;
74880;PMS5003;63427;49.654;6.596;2023-08-30T07:13:29;19;19;
74880;PMS5003;63427;49.654;6.596;2023-08-30T07:15:55;16;16;
74880;PMS5003;63427;49.654;6.596;2023-08-30T07:18:21;18;18;
74880;PMS5003;63427;49.654;6.596;2023-08-30T07:20:46;21;20;
74880;PMS5003;63427;49.654;6.596;2023-08-30T07:23:12;20;20;
74880;PMS5003;63427;49.654;6.596;2023-08-30T07:25:37;21;19;
74880;PMS5003;63427;49.654;6.596;2023-08-30T07:28:02;16;16;
74880;PMS5003;63427;49.654;6.596;2023-08-30T07:30:27;20;19;
74880;PMS5003;63427;49.654;6.596;2023-08-30T07:32:53;25;24;
74880;PMS5003;63427;49.654;6.596;2023-08-30T07:35:18;23;22;
74880;PMS5003;63427;49.654;6.596;2023-08-30T07:37:43;20;19;
74880;PMS5003;63427;49.654;6.596;2023-08-30T07:40:10;19;19;
74880;PMS5003;63427;49.654;6.596;2023-08-30T07:42:35;23;23;
74880;PMS5003;63427;49.654;6.596;2023-08-30T07:45:00;23;22;
74880;PMS5003;63427;49.654;6.596;2023-08-30T07:47:26;22;22;
74880;PMS5003;63427;49.654;6.596;2023-08-30T07:49:51;23;23;
74880;PMS5003;63427;49.654;6.596;2023-08-30T07:52:17;17;17;
74880;PMS5003;63427;49.654;6.596;2023-08-30T07:54:42;20;20;
74880;PMS5003;63427;49.654;6.596;2023-08-30T07:57:07;19;18;
74880;PMS5003;63427;49.654;6.596;2023-08-30T07:59:33;17;17;
74880;PMS5003;63427;49.654;6.596;2023-08-30T08:01:58;15;15;
74880;PMS5003;63427;49.654;6.596;2023-08-30T08:04:24;16;16;
74880;PMS5003;63427;49.654;6.596;2023-08-30T08:06:49;20;20;
74880;PMS5003;63427;49.654;6.596;2023-08-30T08:09:14;18;18;
74880;PMS5003;63427;49.654;6.596;2023-08-30T08:11:39;17;16;
74880;PMS5003;63427;49.654;6.596;2023-08-30T08:14:05;19;19;
74880;PMS5003;63427;49.654;6.596;2023-08-30T08:16:30;19;19;
74880;PMS5003;63427;49.654;6.596;2023-08-30T08:18:56;14;13;
74880;PMS5003;63427;49.654;6.596;2023-08-30T08:21:21;14;14;
74880;PMS5003;63427;49.654;6.596;2023-08-30T08:23:47;18;18;
74880;PMS5003;63427;49.654;6.596;2023-08-30T08:26:12;17;17;
74880;PMS5003;63427;49.654;6.596;2023-08-30T08:28:38;14;14;
74880;PMS5003;63427;49.654;6.596;2023-08-30T08:31:03;14;14;
74880;PMS5003;63427;49.654;6.596;2023-08-30T08:33:29;13;13;
74880;PMS5003;63427;49.654;6.596;2023-08-30T08:35:54;15;14;
74880;PMS5003;63427;49.654;6.596;2023-08-30T08:38:20;17;17;
74880;PMS5003;63427;49.654;6.596;2023-08-30T08:40:45;14;14;
74880;PMS5003;63427;49.654;6.596;2023-08-30T08:43:10;14;13;
74880;PMS5003;63427;49.654;6.596;2023-08-30T08:45:35;13;13;
74880;PMS5003;63427;49.654;6.596;2023-08-30T08:48:01;15;15;
74880;PMS5003;63427;49.654;6.596;2023-08-30T08:50:26;16;14;
74880;PMS5003;63427;49.654;6.596;2023-08-30T08:52:51;13;13;
74880;PMS5003;63427;49.654;6.596;2023-08-30T08:55:16;11;11;
74880;PMS5003;63427;49.654;6.596;2023-08-30T08:57:42;10;10;
74880;PMS5003;63427;49.654;6.596;2023-08-30T09:00:07;13;12;
74880;PMS5003;63427;49.654;6.596;2023-08-30T09:02:32;13;13;
74880;PMS5003;63427;49.654;6.596;2023-08-30T09:04:56;10;10;
74880;PMS5003;63427;49.654;6.596;2023-08-30T09:07:21;10;10;
74880;PMS5003;63427;49.654;6.596;2023-08-30T09:09:47;11;11;
74880;PMS5003;63427;49.654;6.596;2023-08-30T09:12:12;11;11;
74880;PMS5003;63427;49.654;6.596;2023-08-30T09:14:37;11;11;
74880;PMS5003;63427;49.654;6.596;2023-08-30T09:17:02;9;9;
74880;PMS5003;63427;49.654;6.596;2023-08-30T09:19:27;13;12;
74880;PMS5003;63427;49.654;6.596;2023-08-30T09:21:53;13;12;
74880;PMS5003;63427;49.654;6.596;2023-08-30T09:24:17;13;12;
74880;PMS5003;63427;49.654;6.596;2023-08-30T09:26:47;14;14;
74880;PMS5003;63427;49.654;6.596;2023-08-30T09:29:09;11;11;
74880;PMS5003;63427;49.654;6.596;2023-08-30T09:31:35;11;11;
74880;PMS5003;63427;49.654;6.596;2023-08-30T09:34:01;12;12;
74880;PMS5003;63427;49.654;6.596;2023-08-30T09:36:27;13;13;
74880;PMS5003;63427;49.654;6.596;2023-08-30T09:38:52;9;9;
74880;PMS5003;63427;49.654;6.596;2023-08-30T09:41:19;10;10;
74880;PMS5003;63427;49.654;6.596;2023-08-30T09:43:44;8;8;
74880;PMS5003;63427;49.654;6.596;2023-08-30T09:46:09;8;8;
74880;PMS5003;63427;49.654;6.596;2023-08-30T09:48:35;10;10;
74880;PMS5003;63427;49.654;6.596;2023-08-30T09:51:01;9;9;
74880;PMS5003;63427;49.654;6.596;2023-08-30T09:53:27;11;10;
74880;PMS5003;63427;49.654;6.596;2023-08-30T09:55:52;10;10;
74880;PMS5003;63427;49.654;6.596;2023-08-30T09:58:18;8;8;
74880;PMS5003;63427;49.654;6.596;2023-08-30T10:00:44;9;8;
74880;PMS5003;63427;49.654;6.596;2023-08-30T10:03:10;9;9;
74880;PMS5003;63427;49.654;6.596;2023-08-30T10:05:35;10;10;
74880;PMS5003;63427;49.654;6.596;2023-08-30T10:08:01;8;8;
74880;PMS5003;63427;49.654;6.596;2023-08-30T10:10:27;9;8;
74880;PMS5003;63427;49.654;6.596;2023-08-30T10:12:53;9;9;
74880;PMS5003;63427;49.654;6.596;2023-08-30T10:15:19;10;10;
74880;PMS5003;63427;49.654;6.596;2023-08-30T10:17:44;9;9;
74880;PMS5003;63427;49.654;6.596;2023-08-30T10:20:10;10;9;
74880;PMS5003;63427;49.654;6.596;2023-08-30T10:22:36;11;11;
74880;PMS5003;63427;49.654;6.596;2023-08-30T10:25:01;9;9;
74880;PMS5003;63427;49.654;6.596;2023-08-30T10:27:27;9;9;
74880;PMS5003;63427;49.654;6.596;2023-08-30T10:29:52;8;8;
74880;PMS5003;63427;49.654;6.596;2023-08-30T10:32:19;8;8;
74880;PMS5003;63427;49.654;6.596;2023-08-30T10:34:46;10;10;
74880;PMS5003;63427;49.654;6.596;2023-08-30T10:37:10;10;9;
74880;PMS5003;63427;49.654;6.596;2023-08-30T10:39:36;10;9;
74880;PMS5003;63427;49.654;6.596;2023-08-30T10:42:01;9;9;
74880;PMS5003;63427;49.654;6.596;2023-08-30T10:44:26;9;9;
74880;PMS5003;63427;49.654;6.596;2023-08-30T10:46:52;8;8;
74880;PMS5003;63427;49.654;6.596;2023-08-30T10:49:18;9;9;
74880;PMS5003;63427;49.654;6.596;2023-08-30T10:51:44;7;7;
74880;PMS5003;63427;49.654;6.596;2023-08-30T10:54:10;8;8;
74880;PMS5003;63427;49.654;6.596;2023-08-30T10:56:35;9;9;
74880;PMS5003;63427;49.654;6.596;2023-08-30T10:59:02;8;8;
74880;PMS5003;63427;49.654;6.596;2023-08-30T11:01:26;7;7;
74880;PMS5003;63427;49.654;6.596;2023-08-30T11:03:52;8;7;
74880;PMS5003;63427;49.654;6.596;2023-08-30T11:06:18;8;8;
74880;PMS5003;63427;49.654;6.596;2023-08-30T11:08:44;8;8;
74880;PMS5003;63427;49.654;6.596;2023-08-30T11:11:10;7;7;
74880;PMS5003;63427;49.654;6.596;2023-08-30T11:13:35;9;8;
74880;PMS5003;63427;49.654;6.596;2023-08-30T11:16:01;8;8;
74880;PMS5003;63427;49.654;6.596;2023-08-30T11:18:27;7;7;
74880;PMS5003;63427;49.654;6.596;2023-08-30T11:20:53;9;9;
74880;PMS5003;63427;49.654;6.596;2023-08-30T11:23:18;8;8;
74880;PMS5003;63427;49.654;6.596;2023-08-30T11:25:49;7;7;
74880;PMS5003;63427;49.654;6.596;2023-08-30T11:28:10;7;7;
74880;PMS5003;63427;49.654;6.596;2023-08-30T11:30:39;10;9;
74880;PMS5003;63427;49.654;6.596;2023-08-30T11:33:00;9;8;
74880;PMS5003;63427;49.654;6.596;2023-08-30T11:35:25;7;7;
74880;PMS5003;63427;49.654;6.596;2023-08-30T11:37:55;7;7;
74880;PMS5003;63427;49.654;6.596;2023-08-30T11:40:16;8;8;
74880;PMS5003;63427;49.654;6.596;2023-08-30T11:42:41;7;7;
74880;PMS5003;63427;49.654;6.596;2023-08-30T11:45:06;6;6;
74880;PMS5003;63427;49.654;6.596;2023-08-30T11:47:31;8;8;
74880;PMS5003;63427;49.654;6.596;2023-08-30T11:49:57;8;7;
74880;PMS5003;63427;49.654;6.596;2023-08-30T11:52:21;8;8;
74880;PMS5003;63427;49.654;6.596;2023-08-30T11:54:46;9;9;
74880;PMS5003;63427;49.654;6.596;2023-08-30T11:57:11;9;9;
74880;PMS5003;63427;49.654;6.596;2023-08-30T11:59:36;8;8;
74880;PMS5003;63427;49.654;6.596;2023-08-30T12:02:01;8;8;
74880;PMS5003;63427;49.654;6.596;2023-08-30T12:04:27;10;9;
74880;PMS5003;63427;49.654;6.596;2023-08-30T12:06:52;7;7;
74880;PMS5003;63427;49.654;6.596;2023-08-30T12:09:17;8;8;
74880;PMS5003;63427;49.654;6.596;2023-08-30T12:11:42;6;6;
74880;PMS5003;63427;49.654;6.596;2023-08-30T12:14:07;7;7;
74880;PMS5003;63427;49.654;6.596;2023-08-30T12:16:32;7;7;
74880;PMS5003;63427;49.654;6.596;2023-08-30T12:21:22;8;7;
74880;PMS5003;63427;49.654;6.596;2023-08-30T12:23:47;9;9;
74880;PMS5003;63427;49.654;6.596;2023-08-30T12:26:12;6;6;
74880;PMS5003;63427;49.654;6.596;2023-08-30T12:28:37;7;7;
74880;PMS5003;63427;49.654;6.596;2023-08-30T12:31:02;7;7;
74880;PMS5003;63427;49.654;6.596;2023-08-30T12:33:27;9;8;
74880;PMS5003;63427;49.654;6.596;2023-08-30T12:35:52;6;6;
74880;PMS5003;63427;49.654;6.596;2023-08-30T12:38:18;6;6;
74880;PMS5003;63427;49.654;6.596;2023-08-30T12:40:43;8;8;
74880;PMS5003;63427;49.654;6.596;2023-08-30T12:43:08;6;6;
74880;PMS5003;63427;49.654;6.596;2023-08-30T12:45:33;10;10;
74880;PMS5003;63427;49.654;6.596;2023-08-30T12:47:58;6;6;
74880;PMS5003;63427;49.654;6.596;2023-08-30T12:50:23;6;6;
74880;PMS5003;63427;49.654;6.596;2023-08-30T12:52:48;7;7;
74880;PMS5003;63427;49.654;6.596;2023-08-30T12:55:13;8;8;
74880;PMS5003;63427;49.654;6.596;2023-08-30T12:57:38;8;8;
74880;PMS5003;63427;49.654;6.596;2023-08-30T13:00:03;8;8;
74880;PMS5003;63427;49.654;6.596;2023-08-30T13:02:28;7;7;
74880;PMS5003;63427;49.654;6.596;2023-08-30T13:04:53;9;9;
74880;PMS5003;63427;49.654;6.596;2023-08-30T13:07:18;6;6;
74880;PMS5003;63427;49.654;6.596;2023-08-30T13:09:43;8;8;
74880;PMS5003;63427;49.654;6.596;2023-08-30T13:12:08;12;10;
74880;PMS5003;63427;49.654;6.596;2023-08-30T13:14:33;9;9;
74880;PMS5003;63427;49.654;6.596;2023-08-30T13:16:58;10;10;
74880;PMS5003;63427;49.654;6.596;2023-08-30T13:19:23;8;8;
74880;PMS5003;63427;49.654;6.596;2023-08-30T13:21:48;12;12;
74880;PMS5003;63427;49.654;6.596;2023-08-30T13:24:14;7;7;
74880;PMS5003;63427;49.654;6.596;2023-08-30T13:26:39;10;10;
74880;PMS5003;63427;49.654;6.596;2023-08-30T13:29:04;11;10;
74880;PMS5003;63427;49.654;6.596;2023-08-30T13:31:29;8;8;
74880;PMS5003;63427;49.654;6.596;2023-08-30T13:33:54;8;8;
74880;PMS5003;63427;49.654;6.596;2023-08-30T13:36:19;10;10;
74880;PMS5003;63427;49.654;6.596;2023-08-30T13:38:44;8;8;
74880;PMS5003;63427;49.654;6.596;2023-08-30T13:41:09;7;7;
74880;PMS5003;63427;49.654;6.596;2023-08-30T13:43:34;8;8;
74880;PMS5003;63427;49.654;6.596;2023-08-30T13:46:00;7;7;
74880;PMS5003;63427;49.654;6.596;2023-08-30T13:48:25;9;9;
74880;PMS5003;63427;49.654;6.596;2023-08-30T13:50:50;7;7;
74880;PMS5003;63427;49.654;6.596;2023-08-30T13:53:15;7;7;
74880;PMS5003;63427;49.654;6.596;2023-08-30T13:55:40;9;9;
74880;PMS5003;63427;49.654;6.596;2023-08-30T13:58:05;8;8;
74880;PMS5003;63427;49.654;6.596;2023-08-30T14:00:30;7;7;
74880;PMS5003;63427;49.654;6.596;2023-08-30T14:02:55;8;8;
74880;PMS5003;63427;49.654;6.596;2023-08-30T14:05:20;9;9;
74880;PMS5003;63427;49.654;6.596;2023-08-30T14:07:46;10;10;
74880;PMS5003;63427;49.654;6.596;2023-08-30T14:10:12;7;7;
74880;PMS5003;63427;49.654;6.596;2023-08-30T14:12:37;7;7;
74880;PMS5003;63427;49.654;6.596;2023-08-30T14:15:02;8;8;
74880;PMS5003;63427;49.654;6.596;2023-08-30T14:17:27;6;6;
74880;PMS5003;63427;49.654;6.596;2023-08-30T14:19:52;7;7;
74880;PMS5003;63427;49.654;6.596;2023-08-30T14:22:18;10;10;
74880;PMS5003;63427;49.654;6.596;2023-08-30T14:24:43;8;8;
74880;PMS5003;63427;49.654;6.596;2023-08-30T14:27:08;7;7;
74880;PMS5003;63427;49.654;6.596;2023-08-30T14:29:33;7;7;
74880;PMS5003;63427;49.654;6.596;2023-08-30T14:31:58;8;8;
74880;PMS5003;63427;49.654;6.596;2023-08-30T14:34:23;6;6;
74880;PMS5003;63427;49.654;6.596;2023-08-30T14:36:48;7;7;
74880;PMS5003;63427;49.654;6.596;2023-08-30T14:39:14;6;6;
74880;PMS5003;63427;49.654;6.596;2023-08-30T14:41:39;7;7;
74880;PMS5003;63427;49.654;6.596;2023-08-30T14:44:05;5;5;
74880;PMS5003;63427;49.654;6.596;2023-08-30T14:46:30;7;7;
74880;PMS5003;63427;49.654;6.596;2023-08-30T14:48:55;8;7;
74880;PMS5003;63427;49.654;6.596;2023-08-30T14:51:20;6;6;
74880;PMS5003;63427;49.654;6.596;2023-08-30T14:53:45;6;6;
74880;PMS5003;63427;49.654;6.596;2023-08-30T14:56:10;6;6;
74880;PMS5003;63427;49.654;6.596;2023-08-30T14:58:35;6;6;
74880;PMS5003;63427;49.654;6.596;2023-08-30T15:01:01;6;6;
74880;PMS5003;63427;49.654;6.596;2023-08-30T15:03:26;6;6;
74880;PMS5003;63427;49.654;6.596;2023-08-30T15:05:52;5;5;
74880;PMS5003;63427;49.654;6.596;2023-08-30T15:08:16;6;6;
74880;PMS5003;63427;49.654;6.596;2023-08-30T15:10:41;7;7;
74880;PMS5003;63427;49.654;6.596;2023-08-30T15:13:06;5;5;
74880;PMS5003;63427;49.654;6.596;2023-08-30T15:15:32;5;5;
74880;PMS5003;63427;49.654;6.596;2023-08-30T15:17:57;5;5;
74880;PMS5003;63427;49.654;6.596;2023-08-30T15:20:22;6;6;
74880;PMS5003;63427;49.654;6.596;2023-08-30T15:22:47;5;5;
74880;PMS5003;63427;49.654;6.596;2023-08-30T15:25:12;4;4;
74880;PMS5003;63427;49.654;6.596;2023-08-30T15:27:37;5;5;
74880;PMS5003;63427;49.654;6.596;2023-08-30T15:30:03;4;4;
74880;PMS5003;63427;49.654;6.596;2023-08-30T15:32:28;4;4;
74880;PMS5003;63427;49.654;6.596;2023-08-30T15:34:53;7;7;
74880;PMS5003;63427;49.654;6.596;2023-08-30T15:37:18;4;4;
74880;PMS5003;63427;49.654;6.596;2023-08-30T15:39:43;6;6;
74880;PMS5003;63427;49.654;6.596;2023-08-30T15:42:09;8;7;
74880;PMS5003;63427;49.654;6.596;2023-08-30T15:44:34;7;6;
74880;PMS5003;63427;49.654;6.596;2023-08-30T15:46:59;7;6;
74880;PMS5003;63427;49.654;6.596;2023-08-30T15:49:24;6;6;
74880;PMS5003;63427;49.654;6.596;2023-08-30T15:51:49;4;4;
74880;PMS5003;63427;49.654;6.596;2023-08-30T15:54:14;4;4;
74880;PMS5003;63427;49.654;6.596;2023-08-30T15:56:39;5;5;
74880;PMS5003;63427;49.654;6.596;2023-08-30T15:59:05;7;5;
74880;PMS5003;63427;49.654;6.596;2023-08-30T16:01:30;5;5;
74880;PMS5003;63427;49.654;6.596;2023-08-30T16:03:55;4;4;
74880;PMS5003;63427;49.654;6.596;2023-08-30T16:06:21;4;4;
74880;PMS5003;63427;49.654;6.596;2023-08-30T16:08:46;5;5;
74880;PMS5003;63427;49.654;6.596;2023-08-30T16:11:11;4;4;
74880;PMS5003;63427;49.654;6.596;2023-08-30T16:13:36;4;4;
74880;PMS5003;63427;49.654;6.596;2023-08-30T16:16:01;4;4;
74880;PMS5003;63427;49.654;6.596;2023-08-30T16:18:27;4;4;
74880;PMS5003;63427;49.654;6.596;2023-08-30T16:20:52;4;4;
74880;PMS5003;63427;49.654;6.596;2023-08-30T16:23:17;4;3;
74880;PMS5003;63427;49.654;6.596;2023-08-30T16:25:42;3;3;